Time;durP1;ratioP1;P1;durP2;ratioP2;P2;SDS_P1;SDS_P2;PMS_P1;PMS_P2;Temp;Humidity;BMP_temperature;BMP_pressure;BME280_temperature;BME280_humidity;BME280_pressure;Samples;Min_cycle;Max_cycle;Signal;HPM_P1;HPM_P2
2022/06/20 00:02:53;;;;;;;4.07;3.67;;;19.40;85.40;;;;;;10394475;28;20448;-85
2022/06/20 00:07:54;;;;;;;7.20;4.57;;;19.60;85.30;;;;;;10407838;28;20495;-86
2022/06/20 00:12:56;;;;;;;5.72;3.78;;;19.40;87.40;;;;;;10380179;28;20028;-84
2022/06/20 00:17:58;;;;;;;3.90;3.50;;;19.20;87.50;;;;;;10405494;28;20049;-83
2022/06/20 00:22:59;;;;;;;5.93;3.55;;;19.00;89.30;;;;;;10395451;28;20036;-88
2022/06/20 00:27:59;;;;;;;5.55;3.38;;;18.90;90.10;;;;;;10393940;28;20046;-83
2022/06/20 00:33:00;;;;;;;7.38;4.43;;;18.80;90.70;;;;;;10399916;28;20436;-87
2022/06/20 00:38:03;;;;;;;6.00;4.03;;;18.70;90.80;;;;;;10394805;28;20491;-84
2022/06/20 00:43:06;;;;;;;14.10;5.28;;;18.60;91.10;;;;;;10406477;28;20100;-83
2022/06/20 00:48:13;;;;;;;4.53;4.07;;;18.40;91.60;;;;;;10395561;28;20040;-87
2022/06/20 00:53:35;;;;;;;5.80;4.68;;;18.30;92.00;;;;;;10392293;28;20034;-86
2022/06/20 00:59:11;;;;;;;10.85;5.13;;;18.00;93.70;;;;;;10392848;28;20830;-82
2022/06/20 01:04:33;;;;;;;6.93;4.57;;;17.90;94.50;;;;;;10379527;28;20060;-84
2022/06/20 01:09:39;;;;;;;7.18;5.00;;;17.70;96.00;;;;;;10387630;28;20026;-83
2022/06/20 01:14:40;;;;;;;6.82;4.88;;;17.80;97.40;;;;;;10402102;28;20657;-83
2022/06/20 01:20:06;;;;;;;8.10;5.15;;;17.70;98.20;;;;;;10395324;28;20049;-83
2022/06/20 01:25:45;;;;;;;6.93;5.30;;;17.60;98.70;;;;;;10405300;28;20030;-83
2022/06/20 01:30:47;;;;;;;8.40;4.90;;;17.70;99.90;;;;;;10393718;28;20040;-83
2022/06/20 01:46:31;;;;;;;6.30;5.05;;;17.80;99.90;;;;;;10401249;28;20049;-83
2022/06/20 01:51:52;;;;;;;10.05;5.20;;;17.80;99.90;;;;;;10397518;28;20850;-84
2022/06/20 01:56:53;;;;;;;8.15;4.88;;;17.80;99.90;;;;;;10396627;28;20038;-83
2022/06/20 02:01:54;;;;;;;10.60;5.10;;;17.70;99.90;;;;;;10404463;28;20037;-84
2022/06/20 02:06:55;;;;;;;12.23;5.30;;;17.60;99.90;;;;;;10374865;28;20029;-82
2022/06/20 02:11:56;;;;;;;5.80;4.55;;;17.60;99.90;;;;;;10383153;28;20026;-84
2022/06/20 02:17:04;;;;;;;8.48;4.50;;;17.70;99.90;;;;;;10394537;28;20148;-84
2022/06/20 02:22:07;;;;;;;7.57;4.50;;;17.70;99.90;;;;;;10411668;28;20017;-83
2022/06/20 02:27:36;;;;;;;6.43;4.50;;;17.70;99.90;;;;;;10412227;28;20131;-87
2022/06/20 02:32:49;;;;;;;5.32;4.47;;;17.70;99.90;;;;;;10410409;28;20040;-85
2022/06/20 02:37:50;;;;;;;5.97;4.20;;;17.80;99.90;;;;;;10402927;28;20052;-83
2022/06/20 02:43:14;;;;;;;6.75;4.40;;;18.00;99.90;;;;;;10411305;28;20025;-85
2022/06/20 02:48:16;;;;;;;6.07;4.70;;;18.10;99.90;;;;;;10405655;28;20035;-85
2022/06/20 02:53:51;;;;;;;6.35;4.75;;;17.90;99.90;;;;;;10410980;28;20013;-84
2022/06/20 02:58:56;;;;;;;7.70;5.37;;;17.70;99.90;;;;;;10388582;28;20044;-87
2022/06/20 03:03:58;;;;;;;7.35;4.60;;;17.60;99.90;;;;;;10427175;28;20557;-84
2022/06/20 03:09:00;;;;;;;5.53;4.53;;;17.50;99.90;;;;;;10408168;28;20168;-82
2022/06/20 03:14:04;;;;;;;6.80;4.90;;;17.50;99.90;;;;;;10400316;28;20026;-85
2022/06/20 03:19:07;;;;;;;5.57;4.88;;;17.50;99.90;;;;;;10393595;28;20053;-83
2022/06/20 03:24:14;;;;;;;5.93;4.68;;;17.40;99.90;;;;;;10391382;28;20351;-84
2022/06/20 03:29:17;;;;;;;8.23;5.72;;;17.40;99.90;;;;;;10382157;28;20029;-85
2022/06/20 03:34:18;;;;;;;7.28;5.85;;;17.40;99.90;;;;;;10409007;28;20024;-83
2022/06/20 03:39:21;;;;;;;6.97;5.80;;;17.50;99.90;;;;;;10404851;28;20042;-83
2022/06/20 03:44:28;;;;;;;8.88;6.70;;;17.50;99.90;;;;;;10410837;28;20065;-83
2022/06/20 03:49:44;;;;;;;7.55;5.88;;;17.60;99.90;;;;;;10409306;28;20125;-85
2022/06/20 03:54:50;;;;;;;8.13;6.28;;;17.60;99.90;;;;;;10398910;28;20087;-84
2022/06/20 04:00:14;;;;;;;8.20;5.70;;;17.70;99.90;;;;;;10399638;28;20396;-83
2022/06/20 04:05:27;;;;;;;6.22;5.25;;;17.90;99.90;;;;;;10394851;28;20029;-87
2022/06/20 04:16:01;;;;;;;7.15;5.97;;;18.40;99.90;;;;;;10402437;28;20049;-85
2022/06/20 04:21:15;;;;;;;6.38;5.03;;;18.60;99.90;;;;;;10398105;28;20034;-87
2022/06/20 04:26:34;;;;;;;7.93;4.97;;;18.90;99.90;;;;;;10409891;28;20083;-82
2022/06/20 04:31:58;;;;;;;6.95;4.68;;;19.20;99.90;;;;;;10410616;28;20021;-87
2022/06/20 04:37:03;;;;;;;6.85;4.18;;;19.50;99.90;;;;;;10410885;28;20056;-87
2022/06/20 04:42:24;;;;;;;8.55;4.55;;;19.70;99.90;;;;;;10406335;28;20061;-84
2022/06/20 04:47:24;;;;;;;5.18;4.32;;;19.90;99.90;;;;;;10400330;28;20530;-86
2022/06/20 04:52:28;;;;;;;8.85;4.95;;;20.10;99.90;;;;;;10413623;28;20108;-85
2022/06/20 04:57:31;;;;;;;13.32;4.75;;;20.30;99.90;;;;;;10402859;28;20119;-84
2022/06/20 05:02:33;;;;;;;7.82;4.80;;;20.50;99.90;;;;;;10421261;28;20028;-86
2022/06/20 05:07:36;;;;;;;5.85;4.05;;;20.70;99.90;;;;;;10423785;28;20106;-83
2022/06/20 05:12:44;;;;;;;9.68;3.47;;;20.80;99.90;;;;;;10398994;28;20021;-87
2022/06/20 05:17:47;;;;;;;7.65;3.80;;;21.10;97.60;;;;;;10414989;28;20712;-83
2022/06/20 05:22:58;;;;;;;6.40;3.47;;;21.30;96.30;;;;;;10406871;28;20029;-84
2022/06/20 05:28:06;;;;;;;4.25;3.85;;;21.50;96.30;;;;;;10421072;28;20044;-84
2022/06/20 05:33:21;;;;;;;6.18;4.13;;;21.70;95.50;;;;;;10404159;28;20427;-83
2022/06/20 05:38:39;;;;;;;8.98;4.57;;;22.00;94.80;;;;;;10411589;28;20040;-85
2022/06/20 05:43:39;;;;;;;7.57;4.65;;;22.40;94.00;;;;;;10408988;28;20025;-83
2022/06/20 05:49:04;;;;;;;9.73;4.60;;;22.60;93.30;;;;;;10419328;28;20017;-82
2022/06/20 05:54:12;;;;;;;7.68;4.32;;;22.80;92.70;;;;;;10415831;28;20477;-84
2022/06/20 05:59:45;;;;;;;9.90;5.18;;;23.00;91.70;;;;;;10407269;28;20092;-83
2022/06/20 06:05:17;;;;;;;9.48;4.30;;;23.40;90.50;;;;;;10400018;28;20492;-84
2022/06/20 06:10:38;;;;;;;8.88;4.85;;;23.80;87.60;;;;;;10399168;28;20021;-84
2022/06/20 06:21:07;;;;;;;7.63;5.75;;;24.40;87.10;;;;;;10388513;28;20041;-83
2022/06/20 06:26:12;;;;;;;10.90;6.97;;;24.70;85.30;;;;;;10402673;28;20472;-83
2022/06/20 06:31:29;;;;;;;9.15;4.95;;;24.60;83.70;;;;;;10408512;28;20031;-85
2022/06/20 06:36:59;;;;;;;9.15;4.82;;;24.40;83.50;;;;;;10402562;28;20021;-84
2022/06/20 06:42:03;;;;;;;8.02;4.72;;;24.30;83.90;;;;;;10394510;28;20473;-82
2022/06/20 06:47:05;;;;;;;7.80;3.22;;;24.30;84.40;;;;;;10426849;28;20037;-84
2022/06/20 06:52:27;;;;;;;6.43;3.60;;;24.30;83.90;;;;;;10416601;28;20036;-85
2022/06/20 06:57:47;;;;;;;7.50;5.20;;;25.50;83.30;;;;;;10403677;28;20108;-83
2022/06/20 07:02:56;;;;;;;9.93;4.00;;;26.40;80.00;;;;;;10397577;28;20032;-84
2022/06/20 07:08:03;;;;;;;7.28;5.13;;;26.80;77.60;;;;;;10401723;28;20038;-84
2022/06/20 07:13:27;;;;;;;13.93;11.82;;;26.80;75.70;;;;;;10405502;28;20075;-84
2022/06/20 07:18:37;;;;;;;7.55;4.65;;;26.60;75.70;;;;;;10406066;28;20564;-85
2022/06/20 07:23:39;;;;;;;6.43;4.22;;;27.40;75.80;;;;;;10407611;28;20047;-87
2022/06/20 07:28:46;;;;;;;18.13;13.48;;;28.30;72.50;;;;;;10409907;28;20064;-84
2022/06/20 07:34:24;;;;;;;21.10;17.45;;;28.60;70.30;;;;;;10411441;28;20006;-83
2022/06/20 07:39:40;;;;;;;12.60;6.13;;;28.90;68.20;;;;;;10356523;28;20033;-84
2022/06/20 07:45:07;;;;;;;5.38;3.00;;;29.20;66.40;;;;;;10410777;28;20096;-83
2022/06/20 07:50:16;;;;;;;4.07;2.75;;;29.60;67.50;;;;;;10373098;28;20065;-85
2022/06/20 07:55:21;;;;;;;3.67;2.50;;;29.80;66.70;;;;;;10410465;28;20017;-90
2022/06/20 08:00:29;;;;;;;5.07;2.40;;;29.60;67.10;;;;;;10398635;28;20539;-85
2022/06/20 08:05:37;;;;;;;5.80;3.55;;;29.30;68.50;;;;;;10400324;28;20037;-85
2022/06/20 08:10:54;;;;;;;4.93;2.72;;;29.10;68.30;;;;;;10402344;28;20049;-86
2022/06/20 08:16:01;;;;;;;4.95;2.60;;;29.10;68.80;;;;;;10402053;28;20385;-84
2022/06/20 08:21:12;;;;;;;5.82;2.72;;;29.40;71.40;;;;;;10416976;28;20036;-83
2022/06/20 08:26:20;;;;;;;5.25;2.97;;;29.50;68.50;;;;;;10397974;28;20048;-84
2022/06/20 08:31:32;;;;;;;6.63;2.88;;;29.70;68.80;;;;;;10409476;28;20020;-84
2022/06/20 08:36:56;;;;;;;5.90;3.20;;;29.90;69.00;;;;;;10408449;28;20021;-83
2022/06/20 08:42:28;;;;;;;8.87;3.40;;;30.10;67.00;;;;;;10403884;28;20144;-83
2022/06/20 08:47:59;;;;;;;5.00;2.70;;;30.30;70.40;;;;;;10388863;28;20121;-83
2022/06/20 08:53:43;;;;;;;9.38;3.53;;;30.50;67.90;;;;;;10405595;28;20029;-84
2022/06/20 08:59:06;;;;;;;4.80;2.70;;;30.70;68.70;;;;;;10375441;28;20025;-85
2022/06/20 09:04:44;;;;;;;5.32;3.00;;;30.90;65.90;;;;;;10403045;28;20052;-83
2022/06/20 09:10:04;;;;;;;6.78;3.17;;;31.10;68.10;;;;;;10405859;28;20030;-85
2022/06/20 09:15:13;;;;;;;6.88;2.97;;;31.20;63.90;;;;;;10401038;28;20128;-83
2022/06/20 09:20:35;;;;;;;9.23;3.42;;;31.30;65.80;;;;;;10397856;28;20146;-83
2022/06/20 09:26:05;;;;;;;6.22;2.85;;;31.50;64.30;;;;;;10382552;28;20034;-83
2022/06/20 09:31:45;;;;;;;5.47;2.65;;;31.50;66.20;;;;;;10404803;28;20029;-83
2022/06/20 09:37:00;;;;;;;7.97;3.03;;;31.60;67.00;;;;;;10399336;28;20105;-84
2022/06/20 09:42:18;;;;;;;7.28;4.15;;;31.80;66.80;;;;;;10397158;28;20421;-83
2022/06/20 09:47:49;;;;;;;7.82;4.10;;;31.90;63.90;;;;;;10391681;28;20079;-83
2022/06/20 09:53:04;;;;;;;5.78;2.92;;;32.10;59.30;;;;;;10384442;28;20036;-83
2022/06/20 09:58:28;;;;;;;4.97;3.20;;;32.10;65.50;;;;;;10384918;28;20389;-85
2022/06/20 10:04:16;;;;;;;4.88;3.38;;;32.40;65.90;;;;;;10389055;28;20358;-83
2022/06/20 10:09:29;;;;;;;3.83;3.15;;;32.50;66.00;;;;;;10368763;28;20053;-83
2022/06/20 10:14:39;;;;;;;8.27;2.67;;;32.50;63.90;;;;;;10395682;28;20021;-85
2022/06/20 10:19:55;;;;;;;7.05;3.30;;;32.60;63.90;;;;;;10399403;28;20121;-82
2022/06/20 10:25:20;;;;;;;4.80;3.00;;;32.80;63.40;;;;;;10398595;28;20021;-83
2022/06/20 10:30:36;;;;;;;4.65;2.80;;;32.90;63.60;;;;;;10403916;28;20017;-85
2022/06/20 10:36:15;;;;;;;6.53;3.15;;;33.10;62.90;;;;;;10403360;28;20095;-85
2022/06/20 10:41:35;;;;;;;6.38;3.25;;;33.30;62.80;;;;;;10479823;23;20052;-85
2022/06/20 10:46:35;;;;;;;4.65;3.00;;;33.40;62.10;;;;;;10491789;28;20056;-83
2022/06/20 10:51:42;;;;;;;4.95;3.25;;;33.40;62.80;;;;;;10486878;28;20092;-83
2022/06/20 10:56:46;;;;;;;8.10;2.92;;;33.30;61.80;;;;;;10483181;28;20422;-83
2022/06/20 11:01:52;;;;;;;3.38;2.72;;;33.40;63.50;;;;;;10469825;28;20090;-83
2022/06/20 11:07:09;;;;;;;4.40;3.08;;;33.50;62.10;;;;;;10492773;28;20025;-83
2022/06/20 11:12:34;;;;;;;5.00;3.17;;;33.70;62.20;;;;;;10491672;28;20036;-84
2022/06/20 11:17:50;;;;;;;5.13;3.10;;;33.80;61.40;;;;;;10472391;28;20464;-83
2022/06/20 11:23:01;;;;;;;6.60;2.90;;;33.20;61.60;;;;;;10480427;28;20046;-83
2022/06/20 11:28:31;;;;;;;6.18;2.80;;;32.80;64.00;;;;;;10478266;28;20769;-85
2022/06/20 11:39:00;;;;;;;7.43;3.55;;;30.80;62.50;;;;;;10479852;28;20049;-81
2022/06/20 11:44:12;;;;;;;7.93;3.55;;;29.90;65.10;;;;;;10486775;28;20060;-83
2022/06/20 11:49:22;;;;;;;16.45;3.70;;;29.20;66.10;;;;;;10487394;28;20115;-81
2022/06/20 12:54:50;;;;;;;6.35;4.10;;;24.10;90.90;;;;;;10477688;28;20047;-81
2022/06/20 13:00:18;;;;;;;9.18;3.92;;;24.30;90.80;;;;;;10534035;28;20032;-80
2022/06/20 13:05:43;;;;;;;6.72;3.25;;;24.60;90.70;;;;;;10520862;28;20806;-82
2022/06/20 13:11:10;;;;;;;12.05;6.65;;;25.00;89.70;;;;;;10527618;28;20032;-84
2022/06/20 13:16:14;;;;;;;19.60;8.93;;;25.30;90.10;;;;;;10525814;28;20060;-81
2022/06/20 13:21:16;;;;;;;7.68;4.50;;;25.50;87.60;;;;;;10523434;28;20041;-81
2022/06/20 13:26:43;;;;;;;56.88;27.23;;;25.50;87.60;;;;;;10528486;28;20486;-81
2022/06/20 13:32:07;;;;;;;20.00;10.20;;;25.40;87.90;;;;;;10517859;28;20032;-81
2022/06/20 13:37:45;;;;;;;16.33;9.40;;;25.30;87.30;;;;;;10519335;28;20024;-80
2022/06/20 13:42:55;;;;;;;10.82;6.55;;;25.00;88.50;;;;;;10513521;28;20024;-84
2022/06/20 13:48:10;;;;;;;9.90;5.75;;;24.80;88.20;;;;;;10527970;22;20061;-82
2022/06/20 13:53:20;;;;;;;17.52;10.23;;;24.60;90.70;;;;;;10400812;28;20029;-84
2022/06/20 13:58:34;;;;;;;16.25;10.27;;;24.40;91.20;;;;;;10411479;28;20417;-84
2022/06/20 14:03:47;;;;;;;13.52;4.85;;;24.20;91.60;;;;;;10412991;28;20032;-83
2022/06/20 14:08:53;;;;;;;6.47;4.53;;;23.90;90.70;;;;;;10398898;28;20153;-87
2022/06/20 14:13:55;;;;;;;7.63;4.07;;;23.60;91.50;;;;;;10405165;28;20025;-81
2022/06/20 14:19:01;;;;;;;9.27;4.43;;;23.30;92.40;;;;;;10404847;28;20614;-83
2022/06/20 14:24:03;;;;;;;8.95;5.13;;;23.00;94.40;;;;;;10401024;28;20388;-85
2022/06/20 14:29:25;;;;;;;11.07;6.10;;;22.60;98.20;;;;;;10398837;28;20022;-82
2022/06/20 14:35:22;;;;;;;12.60;6.70;;;22.20;99.90;;;;;;10401537;28;20025;-86
2022/06/20 14:40:36;;;;;;;10.35;6.55;;;21.40;99.90;;;;;;10366138;28;20509;-83
2022/06/20 14:45:49;;;;;;;17.00;7.70;;;20.70;99.90;;;;;;10394708;28;20343;-85
2022/06/20 14:51:27;;;;;;;13.65;7.65;;;20.20;99.90;;;;;;10454482;28;20126;-86
2022/06/20 14:56:55;;;;;;;14.57;7.95;;;20.10;99.90;;;;;;10474470;28;20028;-84
2022/06/20 15:02:12;;;;;;;14.23;7.57;;;20.10;99.90;;;;;;10478509;28;20052;-82
2022/06/20 15:07:29;;;;;;;13.65;8.52;;;20.10;99.90;;;;;;10480890;28;20492;-85
2022/06/20 15:12:38;;;;;;;14.48;9.23;;;20.10;99.90;;;;;;10486379;28;20464;-85
2022/06/20 15:17:44;;;;;;;14.68;8.48;;;20.10;99.90;;;;;;10478534;28;20027;-84
2022/06/20 15:23:13;;;;;;;12.77;7.85;;;20.20;99.90;;;;;;10483826;28;20697;-83
2022/06/20 15:28:39;;;;;;;15.88;8.18;;;20.20;99.90;;;;;;10478906;28;20036;-84
2022/06/20 15:33:43;;;;;;;16.20;9.30;;;20.20;99.90;;;;;;10482244;28;20024;-84
2022/06/20 15:38:54;;;;;;;18.35;10.32;;;20.30;99.90;;;;;;10469705;28;20024;-85
2022/06/20 15:44:47;;;;;;;22.83;10.95;;;20.70;99.90;;;;;;10470119;28;20036;-82
2022/06/20 15:49:59;;;;;;;12.45;7.85;;;21.00;99.90;;;;;;10440690;28;20473;-83
2022/06/20 15:55:14;;;;;;;13.45;7.07;;;21.20;99.90;;;;;;10478370;28;20032;-85
2022/06/20 16:00:36;;;;;;;12.55;7.70;;;21.30;99.90;;;;;;10484528;28;20029;-82
2022/06/20 16:06:07;;;;;;;9.50;6.38;;;21.40;99.90;;;;;;10471148;28;20047;-84
2022/06/20 16:11:31;;;;;;;10.68;6.15;;;21.60;99.90;;;;;;10481145;28;20253;-85
2022/06/20 16:16:35;;;;;;;12.30;7.00;;;21.60;99.90;;;;;;10462637;28;20032;-83
2022/06/20 16:21:43;;;;;;;9.35;5.57;;;21.40;99.90;;;;;;10482313;28;20013;-85
2022/06/20 16:26:52;;;;;;;11.25;5.63;;;21.20;99.90;;;;;;10462488;28;20055;-85
2022/06/20 16:31:57;;;;;;;9.07;6.00;;;21.10;99.90;;;;;;10485559;28;20494;-82
2022/06/20 16:37:18;;;;;;;14.32;6.63;;;21.00;99.90;;;;;;10469442;28;20051;-86
2022/06/20 16:42:28;;;;;;;13.20;6.88;;;21.00;99.90;;;;;;10479889;28;20496;-84
2022/06/20 16:47:55;;;;;;;13.40;6.50;;;20.90;99.90;;;;;;10484227;28;20056;-84
2022/06/20 16:53:14;;;;;;;13.35;6.18;;;20.90;99.90;;;;;;10480951;28;20077;-81
2022/06/20 16:58:23;;;;;;;11.10;6.25;;;20.90;99.90;;;;;;10464653;28;20454;-82
2022/06/20 17:03:35;;;;;;;10.75;6.50;;;20.90;99.90;;;;;;10481468;28;20389;-84
2022/06/20 17:08:43;;;;;;;10.55;5.25;;;20.80;99.90;;;;;;10483516;28;20040;-83
2022/06/20 17:14:04;;;;;;;10.13;5.85;;;20.70;99.90;;;;;;10484644;28;20110;-83
2022/06/20 17:19:21;;;;;;;11.13;6.18;;;20.50;99.90;;;;;;10465571;28;20108;-83
2022/06/20 17:24:43;;;;;;;14.30;6.85;;;20.50;99.90;;;;;;10467146;28;20032;-80
2022/06/20 17:30:02;;;;;;;13.00;6.78;;;20.50;99.90;;;;;;10469661;28;20024;-79
2022/06/20 17:35:12;;;;;;;12.73;7.25;;;20.40;99.90;;;;;;10465483;28;20025;-81
2022/06/20 17:40:18;;;;;;;12.57;7.07;;;20.30;99.90;;;;;;10471870;28;20029;-81
2022/06/20 17:45:45;;;;;;;10.80;8.75;;;20.20;99.90;;;;;;10465934;28;20032;-86
2022/06/20 17:50:57;;;;;;;15.30;10.02;;;20.10;99.90;;;;;;10479086;28;20053;-83
2022/06/20 17:56:28;;;;;;;17.77;9.15;;;20.10;99.90;;;;;;10473303;28;20032;-86
2022/06/20 18:01:38;;;;;;;19.00;10.40;;;20.00;99.90;;;;;;10469127;28;20025;-85
2022/06/20 18:06:41;;;;;;;23.55;13.07;;;19.90;99.90;;;;;;10475497;28;20082;-83
2022/06/20 18:11:48;;;;;;;16.63;12.10;;;19.90;99.90;;;;;;10467278;28;20112;-86
2022/06/20 18:17:02;;;;;;;19.08;12.73;;;19.90;99.90;;;;;;10470059;28;20033;-87
2022/06/20 18:22:31;;;;;;;21.42;12.23;;;19.90;99.90;;;;;;10472758;28;20492;-88
2022/06/20 18:27:40;;;;;;;20.55;11.13;;;19.80;99.90;;;;;;10470180;28;20115;-85
2022/06/20 18:32:46;;;;;;;17.10;11.23;;;19.80;99.90;;;;;;10480013;28;20024;-85
2022/06/20 18:38:14;;;;;;;14.75;10.13;;;19.80;99.90;;;;;;10480541;28;20085;-84
2022/06/20 18:43:23;;;;;;;19.60;11.27;;;19.70;99.90;;;;;;10478283;28;20035;-87
2022/06/20 18:48:30;;;;;;;16.05;9.43;;;19.70;99.90;;;;;;10470903;28;20048;-86
2022/06/20 18:54:06;;;;;;;12.05;9.20;;;19.60;99.90;;;;;;10473133;28;20028;-87
2022/06/20 18:59:40;;;;;;;11.63;6.55;;;19.50;99.90;;;;;;10475507;28;20150;-87
2022/06/20 19:05:06;;;;;;;8.90;6.68;;;19.40;99.90;;;;;;10465512;28;21600;-84
2022/06/20 19:10:31;;;;;;;12.82;7.20;;;19.30;99.90;;;;;;10477671;28;20103;-83
2022/06/20 19:15:58;;;;;;;13.68;7.55;;;19.10;99.90;;;;;;10483420;28;20487;-87
2022/06/20 19:21:26;;;;;;;12.90;7.03;;;19.00;99.90;;;;;;10471004;28;20025;-86
2022/06/20 19:26:32;;;;;;;12.77;7.25;;;18.90;99.90;;;;;;10468209;28;20051;-85
2022/06/20 19:31:40;;;;;;;8.30;5.15;;;18.90;99.90;;;;;;10468629;28;20020;-82
2022/06/20 19:36:51;;;;;;;6.40;3.78;;;18.80;99.90;;;;;;10480764;28;20043;-80
2022/06/20 19:42:02;;;;;;;5.07;3.58;;;18.60;99.90;;;;;;10471562;28;20621;-82
2022/06/20 19:47:32;;;;;;;6.93;4.00;;;18.50;99.90;;;;;;10464955;28;20076;-83
2022/06/20 19:52:38;;;;;;;5.15;3.60;;;18.50;99.90;;;;;;10442756;22;20160;-85
2022/06/20 19:58:05;;;;;;;7.72;3.25;;;18.40;99.90;;;;;;10417086;28;20087;-82
2022/06/20 20:03:28;;;;;;;5.97;3.40;;;18.30;99.90;;;;;;10416460;28;20041;-83
2022/06/20 20:08:40;;;;;;;6.78;4.80;;;18.20;99.90;;;;;;10429766;28;20040;-83
2022/06/20 20:13:49;;;;;;;6.70;5.15;;;18.20;99.90;;;;;;10454270;28;20009;-84
2022/06/20 20:19:08;;;;;;;5.30;4.35;;;17.90;99.90;;;;;;10475464;28;20483;-84
2022/06/20 20:24:20;;;;;;;2.47;2.28;;;17.60;99.90;;;;;;10443729;28;20033;-82
2022/06/20 20:29:37;;;;;;;7.47;3.95;;;17.20;99.90;;;;;;10465194;28;20044;-82
2022/06/20 20:35:09;;;;;;;4.85;3.08;;;16.90;99.90;;;;;;10463855;28;20568;-83
2022/06/20 20:40:27;;;;;;;2.80;2.00;;;16.60;99.90;;;;;;10460578;28;20025;-88
2022/06/20 20:45:45;;;;;;;1.58;1.35;;;16.30;99.90;;;;;;10461617;28;20028;-83
2022/06/20 20:50:48;;;;;;;0.80;0.80;;;16.20;99.90;;;;;;10449970;28;20092;-83
2022/06/20 20:56:04;;;;;;;1.73;0.82;;;16.20;99.90;;;;;;10462200;28;20029;-84
2022/06/20 21:01:13;;;;;;;1.50;0.77;;;16.00;99.90;;;;;;10455584;28;20103;-87
2022/06/20 21:06:22;;;;;;;0.90;0.70;;;15.90;99.90;;;;;;10470412;22;20421;-86
2022/06/20 21:11:30;;;;;;;1.00;0.70;;;15.90;99.90;;;;;;10447187;28;20715;-83
2022/06/20 21:16:37;;;;;;;1.23;0.70;;;15.80;99.90;;;;;;10411148;28;20029;-88
2022/06/20 21:21:38;;;;;;;1.85;0.82;;;15.70;99.90;;;;;;10404378;28;20056;-82
2022/06/20 21:26:39;;;;;;;1.13;1.00;;;15.60;99.90;;;;;;10402184;28;20483;-83
2022/06/20 21:31:51;;;;;;;2.20;1.02;;;15.60;99.90;;;;;;10390244;28;20056;-83
2022/06/20 21:36:52;;;;;;;3.08;0.90;;;15.40;99.90;;;;;;10399947;28;20030;-83
2022/06/20 21:42:01;;;;;;;2.40;1.02;;;15.40;99.90;;;;;;10393444;28;20041;-83
2022/06/20 21:47:13;;;;;;;3.58;1.00;;;15.30;99.90;;;;;;10403262;28;20025;-85
2022/06/20 21:52:42;;;;;;;2.03;0.98;;;15.40;99.90;;;;;;10400104;28;20025;-87
2022/06/20 21:57:45;;;;;;;0.80;0.70;;;15.30;99.90;;;;;;10377417;28;20070;-86
2022/06/20 22:08:29;;;;;;;0.98;0.88;;;15.10;99.90;;;;;;10413419;28;20081;-88
2022/06/20 22:13:35;;;;;;;1.65;1.15;;;15.00;99.90;;;;;;10408573;28;20158;-87
2022/06/20 22:19:04;;;;;;;1.38;1.17;;;14.90;99.90;;;;;;10406269;28;20013;-83
2022/06/20 22:24:17;;;;;;;2.35;1.55;;;14.80;99.90;;;;;;10404419;28;20026;-84
2022/06/20 22:29:39;;;;;;;2.22;1.42;;;14.60;99.90;;;;;;10406773;28;20088;-84
2022/06/20 22:34:42;;;;;;;2.78;1.85;;;14.60;99.90;;;;;;10387972;28;20040;-91
2022/06/20 22:40:06;;;;;;;2.55;2.08;;;14.50;99.90;;;;;;10411282;28;20021;-87
2022/06/20 22:45:15;;;;;;;4.45;3.08;;;14.40;99.90;;;;;;10394819;28;20132;-83
2022/06/20 22:50:43;;;;;;;4.85;3.00;;;14.30;99.90;;;;;;10419882;28;20056;-84
2022/06/20 22:55:54;;;;;;;3.38;2.78;;;14.40;99.90;;;;;;10399176;28;20102;-84
2022/06/20 23:01:11;;;;;;;3.22;2.50;;;14.50;99.90;;;;;;10385063;28;20435;-87
2022/06/20 23:06:13;;;;;;;4.95;2.70;;;14.40;99.90;;;;;;10407777;28;20519;-83
2022/06/20 23:11:14;;;;;;;3.58;2.25;;;14.40;99.90;;;;;;10408610;28;20047;-84
2022/06/20 23:21:36;;;;;;;3.35;2.78;;;14.20;99.90;;;;;;10400438;28;20072;-86
2022/06/20 23:26:37;;;;;;;5.25;2.70;;;14.10;99.90;;;;;;10408183;28;20048;-84
2022/06/20 23:31:41;;;;;;;5.95;2.95;;;14.00;99.90;;;;;;10407465;28;20104;-88
2022/06/20 23:36:42;;;;;;;5.05;2.53;;;14.00;99.90;;;;;;10408946;28;20099;-87
2022/06/20 23:41:43;;;;;;;4.68;2.80;;;13.90;99.90;;;;;;10395945;28;20163;-87
2022/06/20 23:46:44;;;;;;;5.15;2.72;;;13.80;99.90;;;;;;10406398;28;20428;-84
2022/06/20 23:51:44;;;;;;;5.40;3.03;;;13.60;99.90;;;;;;10415186;23;20065;-87
2022/06/20 23:56:47;;;;;;;5.75;3.75;;;13.60;99.90;;;;;;10372204;28;20745;-86
